createdAt,value
2022-10-13T00:01:19.070Z,15.38
2022-10-13T00:03:47.505Z,15.40
2022-10-13T00:06:25.154Z,15.31
2022-10-13T00:08:52.628Z,15.34
2022-10-13T00:11:27.207Z,15.30
2022-10-13T00:14:04.354Z,15.28
2022-10-13T00:16:33.355Z,15.30
2022-10-13T00:19:00.768Z,15.33
2022-10-13T00:21:29.212Z,15.25
2022-10-13T00:23:58.519Z,15.18
2022-10-13T00:26:27.739Z,15.25
2022-10-13T00:28:56.683Z,15.21
2022-10-13T00:31:30.692Z,15.17
2022-10-13T00:34:03.017Z,15.22
2022-10-13T00:36:30.522Z,15.17
2022-10-13T00:38:58.857Z,15.04
2022-10-13T00:41:26.463Z,15.09
2022-10-13T00:44:27.553Z,15.13
2022-10-13T00:46:54.874Z,15.17
2022-10-13T00:49:22.202Z,15.19
2022-10-13T00:51:50.628Z,15.06
2022-10-13T00:54:23.746Z,15.18
2022-10-13T00:56:53.402Z,15.03
2022-10-13T00:59:29.118Z,15.01
2022-10-13T01:01:59.614Z,14.94
2022-10-13T01:04:38.118Z,14.91
2022-10-13T01:07:06.839Z,14.91
2022-10-13T01:09:42.230Z,14.87
2022-10-13T01:12:33.117Z,14.95
2022-10-13T01:15:49.365Z,14.92
2022-10-13T01:19:17.885Z,14.88
2022-10-13T01:22:34.517Z,14.87
2022-10-13T01:26:21.193Z,14.74
2022-10-13T01:29:46.950Z,14.81
2022-10-13T01:33:11.474Z,14.74
2022-10-13T01:36:30.290Z,14.72
2022-10-13T01:39:34.394Z,14.66
2022-10-13T01:42:17.974Z,14.69
2022-10-13T01:44:58.451Z,14.57
2022-10-13T01:47:28.133Z,14.58
2022-10-13T01:49:56.798Z,14.64
2022-10-13T01:52:33.170Z,14.66
2022-10-13T01:55:11.595Z,14.59
2022-10-13T01:57:46.222Z,14.56
2022-10-13T02:00:21.260Z,14.64
2022-10-13T02:03:35.239Z,14.54
2022-10-13T02:06:30.927Z,14.50
2022-10-13T02:09:21.522Z,14.59
2022-10-13T02:12:04.611Z,14.57
2022-10-13T02:14:38.377Z,14.63
2022-10-13T02:17:06.092Z,14.59
2022-10-13T02:19:38.814Z,14.52
2022-10-13T02:22:08.233Z,14.59
2022-10-13T02:24:35.939Z,14.54
2022-10-13T02:27:06.642Z,14.58
2022-10-13T02:29:34.242Z,14.52
2022-10-13T02:32:01.685Z,14.42
2022-10-13T02:34:29.053Z,14.43
2022-10-13T02:36:56.335Z,14.47
2022-10-13T02:39:23.735Z,14.47
2022-10-13T02:41:51.025Z,14.47
2022-10-13T02:44:18.483Z,14.34
2022-10-13T02:46:45.788Z,14.37
2022-10-13T02:49:13.307Z,14.27
2022-10-13T02:51:40.755Z,14.22
2022-10-13T02:54:08.423Z,14.25
2022-10-13T02:56:35.726Z,14.24
2022-10-13T02:59:03.660Z,14.26
2022-10-13T03:01:31.026Z,14.21
2022-10-13T03:03:58.531Z,14.17
2022-10-13T03:06:25.938Z,14.28
2022-10-13T03:08:53.441Z,14.22
2022-10-13T03:11:20.806Z,14.20
2022-10-13T03:13:48.104Z,14.21
2022-10-13T03:16:15.404Z,14.14
2022-10-13T03:18:42.686Z,14.13
2022-10-13T03:21:11.282Z,14.15
2022-10-13T03:23:38.564Z,14.14
2022-10-13T03:26:06.139Z,14.04
2022-10-13T03:28:34.377Z,14.14
2022-10-13T03:31:12.007Z,14.13
2022-10-13T03:33:41.058Z,13.99
2022-10-13T03:36:08.812Z,14.04
2022-10-13T03:38:36.990Z,14.03
2022-10-13T03:41:18.619Z,13.94
2022-10-13T03:43:46.206Z,13.94
2022-10-13T03:46:17.778Z,13.97
2022-10-13T03:48:46.828Z,13.91
2022-10-13T03:51:19.853Z,13.96
2022-10-13T03:53:50.441Z,13.98
2022-10-13T03:56:22.990Z,13.84
2022-10-13T03:58:54.404Z,13.79
2022-10-13T04:01:29.912Z,13.94
2022-10-13T04:04:02.347Z,13.84
2022-10-13T04:06:30.969Z,13.93
2022-10-13T04:08:59.054Z,13.96
2022-10-13T04:11:26.501Z,13.98
2022-10-13T04:13:55.723Z,14.06
2022-10-13T04:16:29.293Z,13.95
2022-10-13T04:19:04.806Z,14.01
2022-10-13T04:21:34.717Z,14.01
2022-10-13T04:24:03.918Z,13.99
2022-10-13T04:26:36.582Z,14.00
2022-10-13T04:29:07.337Z,14.05
2022-10-13T04:31:35.317Z,14.10
2022-10-13T04:34:02.637Z,14.13
2022-10-13T04:36:30.211Z,14.11
2022-10-13T04:38:57.550Z,14.11
2022-10-13T04:41:25.861Z,14.09
2022-10-13T04:43:54.588Z,14.12
2022-10-13T04:46:27.326Z,14.09
2022-10-13T04:48:55.658Z,14.14
2022-10-13T04:51:26.117Z,14.15
2022-10-13T04:54:03.193Z,14.20
2022-10-13T04:56:30.565Z,14.21
2022-10-13T04:58:58.107Z,14.30
2022-10-13T05:01:26.546Z,14.27
2022-10-13T05:04:01.429Z,14.26
2022-10-13T05:06:35.833Z,14.29
2022-10-13T05:09:04.052Z,14.25
2022-10-13T05:11:32.078Z,14.27
2022-10-13T05:14:01.268Z,14.21
2022-10-13T05:16:30.585Z,14.18
2022-10-13T05:18:57.946Z,14.24
2022-10-13T05:21:29.957Z,14.11
2022-10-13T05:23:58.379Z,14.18
2022-10-13T05:26:31.908Z,14.14
2022-10-13T05:29:01.781Z,14.23
2022-10-13T05:31:36.253Z,14.21
2022-10-13T05:34:04.183Z,13.90
2022-10-13T05:36:35.153Z,14.08
2022-10-13T05:39:07.627Z,14.14
2022-10-13T05:41:34.940Z,14.07
2022-10-13T05:44:08.670Z,14.01
2022-10-13T05:46:36.673Z,14.06
2022-10-13T05:49:04.415Z,14.13
2022-10-13T05:51:42.626Z,14.15
2022-10-13T05:54:36.570Z,14.17
2022-10-13T05:57:31.431Z,14.12
2022-10-13T06:00:25.026Z,14.13
2022-10-13T06:03:11.823Z,14.18
2022-10-13T06:05:40.689Z,14.19
2022-10-13T06:08:08.779Z,14.24
2022-10-13T06:10:38.191Z,14.24
2022-10-13T06:13:05.549Z,14.27
2022-10-13T06:15:32.966Z,14.33
2022-10-13T06:18:00.876Z,14.35
2022-10-13T06:20:39.716Z,14.32
2022-10-13T06:23:10.131Z,14.41
2022-10-13T06:25:37.429Z,14.32
2022-10-13T06:28:04.870Z,14.43
2022-10-13T06:30:32.142Z,14.37
2022-10-13T06:33:01.377Z,14.41
2022-10-13T06:35:28.675Z,14.41
2022-10-13T06:37:57.488Z,14.44
2022-10-13T06:40:24.755Z,14.44
2022-10-13T06:42:52.088Z,14.37
2022-10-13T06:45:19.532Z,14.37
2022-10-13T06:47:46.976Z,14.30
2022-10-13T06:50:14.486Z,14.41
2022-10-13T06:52:43.506Z,14.30
2022-10-13T06:55:33.951Z,14.49
2022-10-13T06:58:01.297Z,14.43
2022-10-13T07:00:28.597Z,14.53
2022-10-13T07:02:56.037Z,14.48
2022-10-13T07:05:23.394Z,14.58
2022-10-13T07:07:54.066Z,14.51
2022-10-13T07:10:21.368Z,14.39
2022-10-13T07:12:48.745Z,14.60
2022-10-13T07:15:16.197Z,14.55
2022-10-13T07:17:43.581Z,14.56
2022-10-13T07:20:11.581Z,14.59
2022-10-13T07:22:38.850Z,14.64
2022-10-13T07:25:07.565Z,14.74
2022-10-13T07:27:35.832Z,14.73
2022-10-13T07:30:03.537Z,14.66
2022-10-13T07:32:32.269Z,14.70
2022-10-13T07:34:59.784Z,14.79
2022-10-13T07:37:27.292Z,14.78
2022-10-13T07:39:54.625Z,14.83
2022-10-13T07:42:21.977Z,14.81
2022-10-13T07:44:49.233Z,14.82
2022-10-13T07:47:16.608Z,14.95
2022-10-13T07:49:44.829Z,14.98
2022-10-13T07:52:12.181Z,15.00
2022-10-13T07:54:39.488Z,15.04
2022-10-13T07:57:06.846Z,15.12
2022-10-13T07:59:34.406Z,15.13
2022-10-13T08:02:02.935Z,15.21
2022-10-13T08:04:34.341Z,15.26
2022-10-13T08:07:03.332Z,15.24
2022-10-13T08:09:30.639Z,15.25
2022-10-13T08:12:00.951Z,15.28
2022-10-13T08:14:31.190Z,15.40
2022-10-13T08:16:58.809Z,15.40
2022-10-13T08:19:26.626Z,15.39
2022-10-13T08:21:59.601Z,15.44
2022-10-13T08:24:28.391Z,15.46
2022-10-13T08:26:56.902Z,15.46
2022-10-13T08:29:24.799Z,15.57
2022-10-13T08:31:54.605Z,15.51
2022-10-13T08:34:24.307Z,15.57
2022-10-13T08:36:56.933Z,15.55
2022-10-13T08:39:25.161Z,15.59
2022-10-13T08:41:54.863Z,15.59
2022-10-13T08:47:46.877Z,15.82
2022-10-13T08:50:26.677Z,15.84
2022-10-13T08:53:16.768Z,15.77
2022-10-13T08:55:51.945Z,15.84
2022-10-13T08:58:35.038Z,15.98
2022-10-13T09:01:29.035Z,16.05
2022-10-13T09:04:41.620Z,16.05
2022-10-13T09:07:32.368Z,16.25
2022-10-13T09:10:26.486Z,16.25
2022-10-13T09:13:11.852Z,16.43
2022-10-13T09:15:58.903Z,16.56
2022-10-13T09:18:41.414Z,16.50
2022-10-13T09:21:58.460Z,16.58
2022-10-13T09:25:06.758Z,16.61
2022-10-13T09:28:17.466Z,16.59
2022-10-13T09:30:48.226Z,16.60
2022-10-13T09:33:50.650Z,16.71
2022-10-13T09:37:08.165Z,16.81
2022-10-13T09:40:25.706Z,16.82
2022-10-13T09:43:23.377Z,16.84
2022-10-13T09:46:53.738Z,16.88
2022-10-13T09:50:08.656Z,17.03
2022-10-13T09:53:41.841Z,17.06
2022-10-13T10:01:17.867Z,17.14
2022-10-13T10:04:33.965Z,17.25
2022-10-13T10:08:07.326Z,17.41
2022-10-13T10:10:58.169Z,17.49
2022-10-13T10:14:15.491Z,17.60
2022-10-13T10:17:50.329Z,17.74
2022-10-13T10:25:51.819Z,17.79
2022-10-13T10:29:27.535Z,17.96
2022-10-13T10:33:23.725Z,18.05
2022-10-13T10:37:03.972Z,18.10
2022-10-13T10:45:04.127Z,18.34
2022-10-13T10:48:46.135Z,18.15
2022-10-13T10:51:40.433Z,18.26
2022-10-13T10:55:46.214Z,18.36
2022-10-13T11:10:04.503Z,18.64
2022-10-13T11:20:48.916Z,18.68
2022-10-13T11:24:07.263Z,18.74
2022-10-13T11:27:23.158Z,18.78
2022-10-13T11:30:49.951Z,18.71
2022-10-13T11:34:08.770Z,18.65
2022-10-13T11:37:27.429Z,18.70
2022-10-13T11:41:18.039Z,18.83
2022-10-13T11:44:55.540Z,18.78
2022-10-13T11:49:13.389Z,18.86
2022-10-13T11:52:29.102Z,18.72
2022-10-13T11:56:30.626Z,18.94
2022-10-13T11:59:52.572Z,19.26
2022-10-13T12:02:34.229Z,19.35
2022-10-13T12:05:29.462Z,19.56
2022-10-13T12:08:04.192Z,19.72
2022-10-13T12:10:37.963Z,19.60
2022-10-13T12:13:05.609Z,19.58
2022-10-13T12:15:39.748Z,19.66
2022-10-13T12:18:34.316Z,19.67
2022-10-13T12:21:20.556Z,19.58
2022-10-13T12:23:51.992Z,19.50
2022-10-13T12:26:25.240Z,19.55
2022-10-13T12:29:02.529Z,19.57
2022-10-13T12:31:48.635Z,19.40
2022-10-13T12:34:34.293Z,19.29
2022-10-13T12:37:27.094Z,19.50
2022-10-13T12:39:58.247Z,19.41
2022-10-13T12:42:36.081Z,19.46
2022-10-13T12:45:04.875Z,19.43
2022-10-13T12:47:56.442Z,19.38
2022-10-13T12:50:36.483Z,19.37
2022-10-13T12:53:08.784Z,19.36
2022-10-13T12:55:53.543Z,19.18
2022-10-13T12:58:33.865Z,19.16
2022-10-13T13:01:13.332Z,19.21
2022-10-13T13:03:43.246Z,19.07
2022-10-13T13:06:16.659Z,19.24
2022-10-13T13:08:44.112Z,19.25
2022-10-13T13:11:37.982Z,19.24
2022-10-13T13:14:38.709Z,19.30
2022-10-13T13:17:38.492Z,19.26
2022-10-13T13:20:33.929Z,19.37
2022-10-13T13:23:01.318Z,19.29
2022-10-13T13:25:28.701Z,19.42
2022-10-13T13:27:56.037Z,19.31
2022-10-13T13:30:25.158Z,19.12
2022-10-13T13:32:52.561Z,19.33
2022-10-13T13:35:19.946Z,19.21
2022-10-13T13:37:52.235Z,19.30
2022-10-13T13:40:25.640Z,19.41
2022-10-13T13:42:54.277Z,19.41
2022-10-13T13:45:27.360Z,19.48
2022-10-13T13:47:59.510Z,19.44
2022-10-13T13:50:36.595Z,19.17
2022-10-13T13:53:05.570Z,19.32
2022-10-13T13:55:33.282Z,19.24
2022-10-13T13:58:00.629Z,19.09
2022-10-13T14:00:27.954Z,19.18
2022-10-13T14:02:58.683Z,18.87
2022-10-13T14:05:26.616Z,18.58
2022-10-13T14:07:57.891Z,18.67
2022-10-13T14:10:26.830Z,18.47
2022-10-13T14:12:54.120Z,18.41
2022-10-13T14:15:23.392Z,18.59
2022-10-13T14:17:54.664Z,18.28
2022-10-13T14:20:22.490Z,18.53
2022-10-13T14:22:50.354Z,18.61
2022-10-13T14:25:17.782Z,18.48
2022-10-13T14:27:45.876Z,18.44
2022-10-13T14:30:14.495Z,18.64
2022-10-13T14:32:41.830Z,18.73
2022-10-13T14:35:09.638Z,18.55
2022-10-13T14:37:37.269Z,18.48
2022-10-13T14:40:05.810Z,18.28
2022-10-13T14:42:33.086Z,18.28
2022-10-13T14:45:00.396Z,18.19
2022-10-13T14:47:28.007Z,18.12
2022-10-13T14:49:55.411Z,18.17
2022-10-13T14:52:22.724Z,18.30
2022-10-13T14:54:50.361Z,18.46
2022-10-13T14:57:18.069Z,18.41
2022-10-13T14:59:47.275Z,18.40
2022-10-13T15:02:14.794Z,18.36
2022-10-13T15:04:42.281Z,18.26
2022-10-13T15:07:09.646Z,18.28
2022-10-13T15:09:52.875Z,18.27
2022-10-13T15:12:24.344Z,18.42
2022-10-13T15:14:51.637Z,18.38
2022-10-13T15:17:18.946Z,18.33
2022-10-13T15:19:46.320Z,18.23
2022-10-13T15:22:14.813Z,18.22
2022-10-13T15:24:43.356Z,18.27
2022-10-13T15:27:10.659Z,18.38
2022-10-13T15:29:37.953Z,18.13
2022-10-13T15:32:18.281Z,18.20
2022-10-13T15:34:46.268Z,18.03
2022-10-13T15:37:13.816Z,17.66
2022-10-13T15:39:41.197Z,17.62
2022-10-13T15:42:10.379Z,17.51
2022-10-13T15:45:08.295Z,17.53
2022-10-13T15:47:25.439Z,17.69
2022-10-13T15:49:52.719Z,17.63
2022-10-13T15:52:20.852Z,17.65
2022-10-13T15:54:52.988Z,17.46
2022-10-13T15:57:20.282Z,17.43
2022-10-13T15:59:47.602Z,17.43
2022-10-13T16:02:14.916Z,17.56
2022-10-13T16:04:42.198Z,17.46
2022-10-13T16:07:09.505Z,17.36
2022-10-13T16:09:36.780Z,17.43
2022-10-13T16:12:04.334Z,17.35
2022-10-13T16:14:31.767Z,17.48
2022-10-13T16:16:59.913Z,17.33
2022-10-13T16:19:27.259Z,17.31
2022-10-13T16:21:54.576Z,17.31
2022-10-13T16:24:21.927Z,17.33
2022-10-13T16:26:49.214Z,17.16
2022-10-13T16:29:16.605Z,17.21
2022-10-13T16:31:44.179Z,16.99
2022-10-13T16:34:11.750Z,16.88
2022-10-13T16:36:39.041Z,16.88
2022-10-13T16:39:06.393Z,16.71
2022-10-13T16:41:33.724Z,16.67
2022-10-13T16:44:01.046Z,16.62
2022-10-13T16:46:29.065Z,16.51
2022-10-13T16:48:56.581Z,16.52
2022-10-13T16:51:27.030Z,16.64
2022-10-13T16:54:02.963Z,16.65
2022-10-13T16:56:32.633Z,16.71
2022-10-13T16:59:04.691Z,16.77
2022-10-13T17:01:34.732Z,16.72
2022-10-13T17:04:04.970Z,16.74
2022-10-13T17:06:32.656Z,16.92
2022-10-13T17:09:03.254Z,16.67
2022-10-13T17:11:33.946Z,16.66
2022-10-13T17:14:01.933Z,16.72
2022-10-13T17:16:30.041Z,16.70
2022-10-13T17:18:57.528Z,16.55
2022-10-13T17:21:25.012Z,16.63
2022-10-13T17:23:54.380Z,16.61
2022-10-13T17:26:21.689Z,16.73
2022-10-13T17:28:49.089Z,16.74
2022-10-13T17:31:23.754Z,16.82
2022-10-13T17:33:51.970Z,16.84
2022-10-13T17:36:31.852Z,16.86
2022-10-13T17:39:07.863Z,16.76
2022-10-13T17:41:36.574Z,16.64
2022-10-13T17:44:04.171Z,16.77
2022-10-13T17:46:40.116Z,16.77
2022-10-13T17:49:12.253Z,16.89
2022-10-13T17:51:42.894Z,16.95
2022-10-13T17:54:16.145Z,16.82
2022-10-13T17:56:45.325Z,17.00
2022-10-13T17:59:16.058Z,17.00
2022-10-13T18:01:45.107Z,16.88
2022-10-13T18:04:18.666Z,16.61
2022-10-13T18:06:46.449Z,16.62
2022-10-13T18:09:20.890Z,16.62
2022-10-13T18:11:51.557Z,16.71
2022-10-13T18:14:22.498Z,16.72
2022-10-13T18:16:52.358Z,16.80
2022-10-13T18:19:21.435Z,16.74
2022-10-13T18:21:49.329Z,16.88
2022-10-13T18:24:16.702Z,16.94
2022-10-13T18:26:43.972Z,16.82
2022-10-13T18:29:13.013Z,16.90
2022-10-13T18:31:42.429Z,16.87
2022-10-13T18:34:16.944Z,16.95
2022-10-13T18:36:54.888Z,16.89
2022-10-13T18:39:28.634Z,16.90
2022-10-13T18:41:57.822Z,16.93
2022-10-13T18:44:25.301Z,16.81
2022-10-13T18:46:56.340Z,16.79
2022-10-13T18:49:31.092Z,16.89
2022-10-13T18:52:02.339Z,16.94
2022-10-13T18:54:31.661Z,16.79
2022-10-13T18:56:59.092Z,16.88
2022-10-13T18:59:27.435Z,16.72
2022-10-13T19:01:54.934Z,16.73
2022-10-13T19:04:22.445Z,16.71
2022-10-13T19:06:49.864Z,16.63
2022-10-13T19:09:17.574Z,16.77
2022-10-13T19:11:45.089Z,16.84
2022-10-13T19:14:13.534Z,16.73
2022-10-13T19:16:43.684Z,16.67
2022-10-13T19:19:11.824Z,16.77
2022-10-13T19:21:40.522Z,16.86
2022-10-13T19:24:09.784Z,16.93
2022-10-13T19:26:37.714Z,16.95
2022-10-13T19:29:14.727Z,16.88
2022-10-13T19:31:43.908Z,16.90
2022-10-13T19:34:13.632Z,16.73
2022-10-13T19:36:46.175Z,16.70
2022-10-13T19:39:25.694Z,16.73
2022-10-13T19:41:57.489Z,16.64
2022-10-13T19:44:25.738Z,16.78
2022-10-13T19:46:54.138Z,16.75
2022-10-13T19:49:26.270Z,16.84
2022-10-13T19:51:54.226Z,16.93
2022-10-13T19:54:22.261Z,16.94
2022-10-13T19:56:51.913Z,16.95
2022-10-13T19:59:20.245Z,16.82
2022-10-13T20:01:48.243Z,16.84
2022-10-13T20:04:21.173Z,16.79
2022-10-13T20:06:50.911Z,16.77
2022-10-13T20:09:19.648Z,16.81
2022-10-13T20:11:52.377Z,16.84
2022-10-13T20:14:19.956Z,16.72
2022-10-13T20:16:48.706Z,16.72
2022-10-13T20:19:19.680Z,16.80
2022-10-13T20:21:48.070Z,16.72
2022-10-13T20:24:15.964Z,16.74
2022-10-13T20:26:43.396Z,16.66
2022-10-13T20:29:11.152Z,16.64
2022-10-13T20:31:38.724Z,16.65
2022-10-13T20:34:06.288Z,16.48
2022-10-13T20:36:38.550Z,16.65
2022-10-13T20:39:09.118Z,16.71
2022-10-13T20:41:36.872Z,16.71
2022-10-13T20:44:04.720Z,16.70
2022-10-13T20:46:32.999Z,16.62
2022-10-13T20:49:15.804Z,16.70
2022-10-13T20:51:45.252Z,16.66
2022-10-13T20:54:15.388Z,16.69
2022-10-13T20:56:43.480Z,16.59
2022-10-13T20:59:15.456Z,16.54
2022-10-13T21:01:43.179Z,16.57
2022-10-13T21:04:11.222Z,16.54
2022-10-13T21:06:38.802Z,16.46
2022-10-13T21:09:08.575Z,16.45
2022-10-13T21:11:36.609Z,16.48
2022-10-13T21:14:07.585Z,16.47
2022-10-13T21:16:36.459Z,16.48
2022-10-13T21:19:05.057Z,16.47
2022-10-13T21:21:34.977Z,16.45
2022-10-13T21:24:07.309Z,16.52
2022-10-13T21:26:36.146Z,16.45
2022-10-13T21:29:04.387Z,16.45
2022-10-13T21:31:31.789Z,16.55
2022-10-13T21:33:59.438Z,16.51
2022-10-13T21:36:32.696Z,16.46
2022-10-13T21:39:05.963Z,16.41
2022-10-13T21:41:33.530Z,16.36
2022-10-13T21:44:00.805Z,16.35
2022-10-13T21:46:34.892Z,16.44
2022-10-13T21:49:05.780Z,16.35
2022-10-13T21:51:40.420Z,16.34
2022-10-13T21:54:13.853Z,16.39
2022-10-13T21:56:42.268Z,16.42
2022-10-13T21:59:12.944Z,16.36
2022-10-13T22:01:50.537Z,16.24
2022-10-13T22:04:29.379Z,16.45
2022-10-13T22:07:07.049Z,16.39
2022-10-13T22:09:44.609Z,16.37
2022-10-13T22:12:22.211Z,16.33
2022-10-13T22:14:59.768Z,16.27
2022-10-13T22:17:44.177Z,16.24
2022-10-13T22:20:21.770Z,16.28
2022-10-13T22:23:00.434Z,16.19
2022-10-13T22:25:46.257Z,16.20
2022-10-13T22:28:24.343Z,16.17
2022-10-13T22:31:13.026Z,16.19
2022-10-13T22:33:53.708Z,16.22
2022-10-13T22:36:31.716Z,16.20
2022-10-13T22:39:10.646Z,16.19
2022-10-13T22:41:48.180Z,16.11
2022-10-13T22:44:25.829Z,16.27
2022-10-13T22:47:03.345Z,16.16
2022-10-13T22:49:40.890Z,16.12
2022-10-13T22:52:18.494Z,16.26
2022-10-13T22:54:58.402Z,16.18
2022-10-13T22:57:37.557Z,16.14
2022-10-13T23:00:16.691Z,16.21
2022-10-13T23:02:54.636Z,16.20
2022-10-13T23:05:32.619Z,16.29
2022-10-13T23:08:11.168Z,16.29
2022-10-13T23:10:49.052Z,16.16
2022-10-13T23:13:26.852Z,16.11
2022-10-13T23:16:09.208Z,16.08
2022-10-13T23:18:47.457Z,16.14
2022-10-13T23:21:29.469Z,16.08
2022-10-13T23:24:08.352Z,16.05
2022-10-13T23:26:45.896Z,16.16
2022-10-13T23:29:23.972Z,16.14
2022-10-13T23:32:03.404Z,16.08
2022-10-13T23:34:43.911Z,16.15
2022-10-13T23:37:21.771Z,16.10
2022-10-13T23:39:59.583Z,16.07
2022-10-13T23:42:37.993Z,16.13
2022-10-13T23:45:15.627Z,16.14
2022-10-13T23:47:53.140Z,16.10
2022-10-13T23:50:30.650Z,16.14
2022-10-13T23:53:09.795Z,16.03
2022-10-13T23:55:47.305Z,15.96
2022-10-13T23:58:25.190Z,15.93
